Time;durP1;ratioP1;P1;durP2;ratioP2;P2;SDS_P1;SDS_P2;PMS_P1;PMS_P2;Temp;Humidity;BMP_temperature;BMP_pressure;BME280_temperature;BME280_humidity;BME280_pressure;Samples;Min_cycle;Max_cycle;Signal;HPM_P1;HPM_P2
2022/07/06 00:00:11;;;;;;;3.65;1.23;;;;;;;15.85;100.00;96258.09;1030229;28;20031;-72
2022/07/06 00:00:41;;;;;;;1.20;1.10;;;;;;;15.86;100.00;96256.22;1030068;28;20032;-74
2022/07/06 00:01:12;;;;;;;2.00;1.17;;;;;;;15.88;100.00;96262.03;1026010;28;20046;-73
2022/07/06 00:01:42;;;;;;;3.35;1.67;;;;;;;15.86;100.00;96264.16;1021667;29;20054;-72
2022/07/06 00:02:13;;;;;;;1.75;1.30;;;;;;;15.85;100.00;96257.31;1018227;29;20034;-72
2022/07/06 00:02:43;;;;;;;2.22;1.30;;;;;;;15.87;100.00;96265.75;1023150;28;20051;-74
2022/07/06 00:03:14;;;;;;;2.28;1.30;;;;;;;15.85;100.00;96260.75;1022112;28;20023;-74
2022/07/06 00:03:44;;;;;;;1.95;1.05;;;;;;;15.89;100.00;96266.25;1026154;28;20537;-74
2022/07/06 00:04:15;;;;;;;2.13;1.38;;;;;;;15.93;100.00;96264.63;1022236;28;20020;-72
2022/07/06 00:04:45;;;;;;;3.47;1.70;;;;;;;15.92;100.00;96265.69;1021892;28;20028;-74
2022/07/06 00:05:15;;;;;;;2.58;1.20;;;;;;;15.92;100.00;96269.13;1026054;28;20803;-73
2022/07/06 00:05:46;;;;;;;3.47;1.52;;;;;;;15.88;100.00;96262.03;1026067;28;20058;-73
2022/07/06 00:06:17;;;;;;;2.15;1.20;;;;;;;15.89;100.00;96269.69;1018045;29;20551;-73
2022/07/06 00:06:47;;;;;;;1.55;1.02;;;;;;;15.86;100.00;96267.63;1022112;29;20063;-73
2022/07/06 00:07:18;;;;;;;4.60;1.30;;;;;;;15.93;100.00;96268.06;1014084;29;20798;-73
2022/07/06 00:07:48;;;;;;;1.38;1.08;;;;;;;15.93;100.00;96265.41;1017678;28;20024;-72
2022/07/06 00:08:19;;;;;;;4.20;1.20;;;;;;;15.94;100.00;96271.50;1025884;28;20057;-74
2022/07/06 00:08:49;;;;;;;5.80;1.30;;;;;;;15.93;100.00;96273.38;1022184;29;20443;-72
2022/07/06 00:09:20;;;;;;;2.03;1.27;;;;;;;15.97;100.00;96273.56;1025983;28;20073;-72
2022/07/06 00:09:50;;;;;;;0.90;0.80;;;;;;;15.99;100.00;96271.41;1026138;28;20554;-73
2022/07/06 00:10:21;;;;;;;3.58;1.30;;;;;;;16.00;100.00;96276.44;1034184;28;20018;-73
2022/07/06 00:10:51;;;;;;;1.60;1.13;;;;;;;16.01;100.00;96269.28;1034297;28;20022;-74
2022/07/06 00:11:22;;;;;;;3.05;1.20;;;;;;;16.01;100.00;96271.94;1035504;28;20049;-74
2022/07/06 00:11:52;;;;;;;1.48;0.98;;;;;;;16.05;100.00;96275.59;1025648;28;20050;-72
2022/07/06 00:12:23;;;;;;;3.10;1.40;;;;;;;16.04;100.00;96271.38;1021996;29;20534;-72
2022/07/06 00:12:53;;;;;;;3.30;1.38;;;;;;;16.06;100.00;96269.22;1021949;28;20019;-72
2022/07/06 00:13:24;;;;;;;2.35;1.20;;;;;;;16.03;100.00;96269.81;1014140;29;20031;-72
2022/07/06 00:13:56;;;;;;;2.13;1.17;;;;;;;16.06;100.00;96274.50;1022101;28;20031;-74
2022/07/06 00:14:26;;;;;;;1.77;1.30;;;;;;;16.06;100.00;96268.44;1018105;29;20064;-73
2022/07/06 00:14:57;;;;;;;2.00;1.00;;;;;;;16.09;100.00;96268.66;1022260;28;20129;-71
2022/07/06 00:15:27;;;;;;;2.78;1.40;;;;;;;16.07;100.00;96268.16;1025789;28;20558;-72
2022/07/06 00:15:58;;;;;;;2.95;1.27;;;;;;;16.12;100.00;96273.38;1025714;28;20129;-72
2022/07/06 00:16:28;;;;;;;2.45;1.88;;;;;;;16.09;100.00;96259.91;1022595;28;20050;-73
2022/07/06 00:16:59;;;;;;;2.50;1.15;;;;;;;16.08;100.00;96267.06;1017356;29;20110;-71
2022/07/06 00:17:29;;;;;;;2.42;1.00;;;;;;;16.12;100.00;96273.38;1018217;29;20031;-73
2022/07/06 00:18:00;;;;;;;2.45;1.50;;;;;;;16.11;100.00;96271.81;1018979;28;20031;-72
2022/07/06 00:18:30;;;;;;;1.58;1.35;;;;;;;16.10;100.00;96272.09;1026086;28;20038;-73
2022/07/06 00:19:00;;;;;;;5.28;1.75;;;;;;;16.04;100.00;96268.72;1030279;28;20707;-73
2022/07/06 00:19:31;;;;;;;4.03;1.33;;;;;;;16.09;100.00;96273.94;1029981;28;20128;-73
2022/07/06 00:20:01;;;;;;;1.77;1.50;;;;;;;16.08;100.00;96274.25;1030092;28;20693;-72
2022/07/06 00:20:32;;;;;;;4.15;1.88;;;;;;;16.05;100.00;96272.94;1030064;28;20038;-72
2022/07/06 00:21:03;;;;;;;2.47;1.30;;;;;;;16.05;100.00;96277.44;1030262;28;20022;-72
2022/07/06 00:21:33;;;;;;;4.80;1.50;;;;;;;16.00;100.00;96267.72;1030019;28;20100;-72
2022/07/06 00:22:04;;;;;;;5.10;1.30;;;;;;;16.02;100.00;96270.84;1023734;28;20037;-72
2022/07/06 00:22:34;;;;;;;1.92;1.40;;;;;;;16.02;100.00;96276.16;1029955;28;20030;-73
2022/07/06 00:23:05;;;;;;;1.67;1.23;;;;;;;16.00;100.00;96273.00;1030304;28;20034;-73
2022/07/06 00:23:35;;;;;;;3.47;1.20;;;;;;;15.96;100.00;96264.03;1034018;28;20069;-72
2022/07/06 00:24:06;;;;;;;2.88;1.23;;;;;;;16.00;100.00;96267.72;1030161;28;20116;-72
2022/07/06 00:24:36;;;;;;;2.40;1.13;;;;;;;15.98;100.00;96260.06;1029991;28;20034;-74
2022/07/06 00:25:08;;;;;;;1.10;1.00;;;;;;;16.01;100.00;96266.63;1025965;28;20538;-73
2022/07/06 00:25:38;;;;;;;2.05;1.23;;;;;;;15.99;100.00;96271.41;1029906;28;20042;-72
2022/07/06 00:26:09;;;;;;;2.22;0.93;;;;;;;15.95;100.00;96262.47;1029509;28;20765;-73
2022/07/06 00:26:39;;;;;;;2.92;1.17;;;;;;;16.04;100.00;96268.72;1022169;28;20031;-73
2022/07/06 00:27:10;;;;;;;2.83;1.20;;;;;;;16.05;100.00;96269.50;1023808;28;20165;-73
2022/07/06 00:27:40;;;;;;;1.77;1.25;;;;;;;16.02;100.00;96263.69;1030157;28;20167;-74
2022/07/06 00:28:11;;;;;;;5.30;1.50;;;;;;;16.08;100.00;96267.06;1025883;28;20037;-72
2022/07/06 00:28:41;;;;;;;2.28;1.15;;;;;;;16.07;100.00;96270.81;1025915;28;20514;-73
2022/07/06 00:29:12;;;;;;;1.58;0.98;;;;;;;16.08;100.00;96264.44;1026056;28;20030;-73
2022/07/06 00:29:43;;;;;;;4.00;1.15;;;;;;;16.07;100.00;96265.50;1025477;28;20031;-73
2022/07/06 00:30:14;;;;;;;2.85;1.20;;;;;;;16.07;100.00;96259.44;1029100;28;20034;-73
2022/07/06 00:30:44;;;;;;;2.72;1.25;;;;;;;16.08;100.00;96271.59;1033601;28;20465;-73
2022/07/06 00:31:15;;;;;;;4.75;1.38;;;;;;;16.08;100.00;96264.44;1033969;28;20040;-73
2022/07/06 00:31:45;;;;;;;1.75;1.40;;;;;;;16.07;100.00;96262.88;1029840;28;20292;-73
2022/07/06 00:32:16;;;;;;;2.30;1.27;;;;;;;16.11;100.00;96263.88;1021724;29;20039;-73
2022/07/06 00:32:46;;;;;;;1.83;1.10;;;;;;;16.11;100.00;96261.22;1022175;29;20565;-73
2022/07/06 00:33:17;;;;;;;1.52;1.33;;;;;;;16.10;100.00;96264.16;1022153;28;20031;-74
2022/07/06 00:33:47;;;;;;;3.03;1.42;;;;;;;16.09;100.00;96260.69;1026194;28;20118;-73
2022/07/06 00:34:17;;;;;;;7.43;1.50;;;;;;;16.06;100.00;96263.13;1034001;28;20603;-72
2022/07/06 00:34:48;;;;;;;2.20;1.17;;;;;;;16.04;100.00;96260.78;1030103;28;20045;-72
2022/07/06 00:35:18;;;;;;;3.17;1.00;;;;;;;16.06;100.00;96263.13;1030177;28;20334;-72
2022/07/06 00:35:49;;;;;;;3.00;2.08;;;;;;;16.02;100.00;96268.22;1021846;29;20043;-73
2022/07/06 00:36:19;;;;;;;1.88;1.10;;;;;;;16.00;100.00;96265.06;1022095;28;20768;-74
2022/07/06 00:36:50;;;;;;;7.32;1.67;;;;;;;15.98;100.00;96261.91;1018026;29;20096;-72
2022/07/06 00:37:20;;;;;;;1.48;1.25;;;;;;;16.00;100.00;96265.06;1018078;29;20099;-72
2022/07/06 00:37:51;;;;;;;1.77;1.15;;;;;;;15.99;100.00;96263.47;1018306;29;20066;-74
2022/07/06 00:38:21;;;;;;;1.23;1.13;;;;;;;15.95;100.00;96268.56;1010373;29;20012;-73
2022/07/06 00:38:52;;;;;;;1.85;1.48;;;;;;;15.92;100.00;96261.19;1021882;28;20031;-72
2022/07/06 00:39:28;;;;;;;2.05;1.20;;;;;;;15.87;100.00;96255.19;1022411;28;20288;-73
2022/07/06 00:39:59;;;;;;;5.00;1.20;;;;;;;15.88;100.00;96267.34;1023761;28;20110;-74
2022/07/06 00:40:29;;;;;;;1.75;1.00;;;;;;;15.88;100.00;96256.75;1022227;28;20027;-73
2022/07/06 00:41:00;;;;;;;2.75;1.13;;;;;;;15.83;100.00;96264.72;1026138;28;20023;-72
2022/07/06 00:41:30;;;;;;;1.60;1.13;;;;;;;15.84;100.00;96261.03;1022052;28;20027;-73
2022/07/06 00:42:01;;;;;;;3.38;1.20;;;;;;;15.83;100.00;96260.25;1025762;28;20388;-72
2022/07/06 00:42:42;;;;;;;3.17;1.55;;;;;;;15.79;100.00;96264.50;1033725;28;20141;-72
2022/07/06 00:43:12;;;;;;;6.15;1.20;;;;;;;15.78;100.00;96258.44;1035826;28;20101;-72
2022/07/06 00:43:55;;;;;;;2.22;1.27;;;;;;;15.77;100.00;96264.03;1034023;28;20509;-74
2022/07/06 00:44:25;;;;;;;1.90;1.05;;;;;;;15.74;100.00;96261.94;1025890;28;20643;-72
2022/07/06 00:44:56;;;;;;;2.40;1.13;;;;;;;15.72;100.00;96259.56;1022086;29;20158;-72
2022/07/06 00:45:26;;;;;;;1.30;1.10;;;;;;;15.71;100.00;96263.28;1018101;29;20020;-73
2022/07/06 00:45:57;;;;;;;2.75;1.30;;;;;;;15.69;100.00;96254.84;1025866;28;20023;-72
2022/07/06 00:46:30;;;;;;;2.78;1.30;;;;;;;15.68;100.00;96258.56;1026170;28;20078;-74
2022/07/06 00:47:01;;;;;;;2.63;1.20;;;;;;;15.66;100.00;96254.56;1021881;28;20050;-71
2022/07/06 00:47:31;;;;;;;2.28;1.45;;;;;;;15.68;100.00;96263.06;1018008;29;20024;-72
2022/07/06 00:48:02;;;;;;;2.85;1.13;;;;;;;15.62;100.00;96256.22;1017648;29;20046;-73
2022/07/06 00:48:32;;;;;;;3.88;1.30;;;;;;;15.60;100.00;96261.78;1021684;28;20597;-72
2022/07/06 00:49:02;;;;;;;3.00;1.33;;;;;;;15.63;100.00;96268.38;1022020;28;20118;-73
2022/07/06 00:50:23;;;;;;;3.95;1.60;;;;;;;15.60;100.00;96253.06;1026104;28;20033;-73
2022/07/06 00:50:53;;;;;;;1.70;1.10;;;;;;;15.65;100.00;96266.22;1021698;28;20021;-72
2022/07/06 00:51:31;;;;;;;2.38;1.35;;;;;;;15.68;100.00;96263.84;1018169;29;20439;-72
2022/07/06 00:52:01;;;;;;;6.38;1.45;;;;;;;15.66;100.00;96258.06;1018479;29;20044;-74
2022/07/06 00:52:32;;;;;;;3.13;1.70;;;;;;;15.72;100.00;96256.13;1023808;28;20015;-72
2022/07/06 00:53:04;;;;;;;2.75;1.40;;;;;;;15.71;100.00;96252.69;1025949;28;20018;-73
2022/07/06 00:53:34;;;;;;;2.28;1.23;;;;;;;15.70;100.00;96251.13;1029928;28;20054;-73
2022/07/06 00:54:05;;;;;;;1.40;1.30;;;;;;;15.76;100.00;96260.59;1022015;28;20015;-72
2022/07/06 00:54:35;;;;;;;2.60;1.17;;;;;;;15.75;100.00;96259.00;1022053;29;20369;-73
2022/07/06 00:55:06;;;;;;;4.43;1.63;;;;;;;15.72;100.00;96248.19;1025814;28;20051;-72
2022/07/06 00:55:41;;;;;;;1.65;1.10;;;;;;;15.77;100.00;96259.50;1022112;29;20019;-72
2022/07/06 00:56:11;;;;;;;3.40;1.30;;;;;;;15.73;100.00;96255.84;1029092;28;20107;-73
2022/07/06 00:56:42;;;;;;;3.65;1.30;;;;;;;15.75;100.00;96253.69;1022059;29;20766;-72
2022/07/06 00:57:12;;;;;;;2.08;1.30;;;;;;;15.71;100.00;96250.06;1022497;29;20070;-73
2022/07/06 00:57:43;;;;;;;3.70;1.70;;;;;;;15.70;100.00;96253.78;1025759;28;20038;-73
2022/07/06 00:58:13;;;;;;;4.18;1.50;;;;;;;15.70;100.00;96256.41;1018303;29;20127;-74
2022/07/06 00:58:44;;;;;;;3.92;1.30;;;;;;;15.67;100.00;96259.63;1022253;29;20026;-73
2022/07/06 00:59:14;;;;;;;1.35;1.23;;;;;;;15.62;100.00;96250.91;1030241;28;20022;-72
2022/07/06 00:59:45;;;;;;;2.17;1.38;;;;;;;15.66;100.00;96257.22;1022195;29;20058;-73
2022/07/06 01:00:17;;;;;;;3.15;1.27;;;;;;;15.57;100.00;96247.28;1030198;28;20474;-72
2022/07/06 01:00:47;;;;;;;2.55;1.40;;;;;;;15.60;100.00;96258.38;1029817;28;20033;-72
2022/07/06 01:01:18;;;;;;;1.50;1.20;;;;;;;15.57;100.00;96257.06;1022072;28;20912;-73
2022/07/06 01:01:48;;;;;;;1.85;1.27;;;;;;;15.57;100.00;96254.41;1025515;28;20556;-72
2022/07/06 01:02:20;;;;;;;2.47;1.70;;;;;;;15.55;100.00;96259.19;1018136;29;20075;-72
2022/07/06 01:02:50;;;;;;;1.88;1.23;;;;;;;15.57;100.00;96262.34;1018162;29;20400;-72
2022/07/06 01:03:21;;;;;;;2.20;1.50;;;;;;;15.53;100.00;96256.06;1021871;29;20034;-72
2022/07/06 01:03:54;;;;;;;1.33;1.23;;;;;;;15.49;100.00;96258.47;1018665;28;20032;-73
2022/07/06 01:04:24;;;;;;;3.55;1.42;;;;;;;15.51;100.00;96263.47;1030935;28;20030;-72
2022/07/06 01:04:55;;;;;;;1.55;1.20;;;;;;;15.48;100.00;96258.75;1029893;28;20065;-73
2022/07/06 01:05:26;;;;;;;3.72;1.67;;;;;;;15.45;100.00;96261.94;1029985;28;20549;-73
2022/07/06 01:05:56;;;;;;;4.53;1.55;;;;;;;15.47;100.00;96262.47;1025739;28;20026;-73
2022/07/06 01:06:29;;;;;;;1.92;1.50;;;;;;;15.45;100.00;96264.59;1025590;28;20564;-73
2022/07/06 01:07:00;;;;;;;4.50;1.65;;;;;;;15.43;100.00;96264.09;1025949;28;20041;-72
2022/07/06 01:07:31;;;;;;;4.15;1.73;;;;;;;15.42;100.00;96259.84;1025349;28;20065;-74
2022/07/06 01:08:01;;;;;;;1.88;1.50;;;;;;;15.42;100.00;96262.50;1027783;28;20404;-72
2022/07/06 01:08:32;;;;;;;2.92;2.08;;;;;;;15.43;100.00;96266.75;1034070;28;20096;-73
2022/07/06 01:09:02;;;;;;;1.48;1.35;;;;;;;15.38;100.00;96261.50;1017936;29;20059;-73
2022/07/06 01:09:32;;;;;;;2.13;1.67;;;;;;;15.40;100.00;96267.31;1025747;28;20038;-72
2022/07/06 01:10:07;;;;;;;2.30;1.55;;;;;;;15.39;100.00;96255.94;1037894;28;20030;-72
2022/07/06 01:10:37;;;;;;;2.53;1.40;;;;;;;15.39;100.00;96255.13;1034123;28;20034;-74
2022/07/06 01:11:08;;;;;;;2.50;1.40;;;;;;;15.42;100.00;96265.16;1021923;29;20549;-73
2022/07/06 01:11:38;;;;;;;6.85;1.60;;;;;;;15.37;100.00;96252.00;1013403;29;20059;-71
2022/07/06 01:12:09;;;;;;;2.53;1.30;;;;;;;15.41;100.00;96253.00;1029901;28;20042;-72
2022/07/06 01:12:40;;;;;;;5.20;1.92;;;;;;;15.42;100.00;96265.16;1021910;29;20098;-73
2022/07/06 01:13:10;;;;;;;2.30;1.52;;;;;;;15.35;100.00;96249.63;1025853;28;20023;-73
2022/07/06 01:13:41;;;;;;;4.60;1.60;;;;;;;15.45;100.00;96267.22;1029704;28;20026;-72
2022/07/06 01:14:12;;;;;;;2.78;1.50;;;;;;;15.43;100.00;96256.94;1021912;29;20027;-73
2022/07/06 01:14:42;;;;;;;3.92;1.88;;;;;;;15.45;100.00;96262.72;1029817;28;20041;-72
2022/07/06 01:15:18;;;;;;;3.47;1.40;;;;;;;15.46;100.00;96266.16;1030049;28;20030;-70
2022/07/06 01:15:48;;;;;;;2.70;1.50;;;;;;;15.44;100.00;96268.31;1025569;28;20145;-74
2022/07/06 01:16:18;;;;;;;3.97;1.67;;;;;;;15.43;100.00;96266.75;1024805;28;20094;-73
2022/07/06 01:16:49;;;;;;;2.30;1.80;;;;;;;15.42;100.00;96267.78;1016382;29;20062;-70
2022/07/06 01:17:19;;;;;;;2.83;1.40;;;;;;;15.38;100.00;96264.91;1014230;29;20020;-74
2022/07/06 01:17:50;;;;;;;3.00;1.50;;;;;;;15.35;100.00;96259.41;1018010;29;20046;-73
2022/07/06 01:18:21;;;;;;;4.13;1.63;;;;;;;15.37;100.00;96259.94;1017793;29;20078;-73
2022/07/06 01:18:51;;;;;;;1.92;1.40;;;;;;;15.35;100.00;96259.41;1017979;29;20023;-74
2022/07/06 01:19:22;;;;;;;3.05;1.30;;;;;;;15.34;100.00;96261.25;1025850;28;20034;-73
2022/07/06 01:19:52;;;;;;;6.25;1.90;;;;;;;15.31;100.00;96259.97;1021740;28;20867;-74
2022/07/06 01:20:24;;;;;;;2.53;1.40;;;;;;;15.35;100.00;96265.47;1025967;28;20031;-73
2022/07/06 01:21:11;;;;;;;2.58;2.03;;;;;;;15.29;100.00;96256.81;1025647;28;20039;-72
2022/07/06 01:21:42;;;;;;;2.05;1.80;;;;;;;15.29;100.00;96259.47;1025163;28;20031;-73
2022/07/06 01:22:12;;;;;;;2.20;2.00;;;;;;;15.29;100.00;96264.75;1025456;28;20035;-73
2022/07/06 01:22:46;;;;;;;3.60;1.70;;;;;;;15.28;100.00;96260.50;1029205;28;20026;-73
2022/07/06 01:23:17;;;;;;;4.78;2.05;;;;;;;15.26;100.00;96262.66;1026024;28;20034;-72
2022/07/06 01:23:47;;;;;;;3.40;1.80;;;;;;;15.22;100.00;96261.63;1024417;28;20062;-74
2022/07/06 01:24:18;;;;;;;4.50;1.48;;;;;;;15.22;100.00;96266.91;1022937;28;20101;-72
2022/07/06 01:24:48;;;;;;;2.45;1.58;;;;;;;15.22;100.00;96264.28;1027259;28;20027;-73
2022/07/06 01:25:19;;;;;;;2.17;1.70;;;;;;;15.20;100.00;96266.41;1021741;29;20031;-73
2022/07/06 01:25:49;;;;;;;1.65;1.52;;;;;;;15.22;100.00;96266.91;1022450;28;20035;-73
2022/07/06 01:26:20;;;;;;;2.33;1.95;;;;;;;15.21;100.00;96269.84;1033764;28;20551;-74
2022/07/06 01:26:51;;;;;;;1.48;1.38;;;;;;;15.16;100.00;96268.06;1026009;28;20494;-73
2022/07/06 01:27:21;;;;;;;3.13;1.50;;;;;;;15.17;100.00;96277.56;1025865;28;20046;-70
2022/07/06 01:27:52;;;;;;;1.67;1.50;;;;;;;15.18;100.00;96271.19;1018034;29;20032;-73
2022/07/06 01:28:22;;;;;;;3.88;1.70;;;;;;;15.22;100.00;96274.06;1025769;28;20030;-73
2022/07/06 01:28:52;;;;;;;6.35;2.03;;;;;;;15.21;100.00;96272.50;1021771;28;20055;-74
2022/07/06 01:29:23;;;;;;;4.60;1.95;;;;;;;15.20;100.00;96271.72;1025223;28;20538;-73
2022/07/06 01:29:53;;;;;;;3.35;1.38;;;;;;;15.18;100.00;96273.84;1017119;29;20061;-74
2022/07/06 01:30:24;;;;;;;4.43;1.80;;;;;;;15.21;100.00;96275.91;1018778;28;20024;-72
2022/07/06 01:30:54;;;;;;;1.88;1.67;;;;;;;15.15;100.00;96270.97;1029773;28;20026;-73
2022/07/06 01:31:25;;;;;;;2.45;1.33;;;;;;;15.18;100.00;96281.75;1030015;28;20080;-74
2022/07/06 01:31:55;;;;;;;1.85;1.42;;;;;;;15.18;100.00;96276.47;1029157;28;20424;-73
2022/07/06 01:32:26;;;;;;;2.72;1.70;;;;;;;15.16;100.00;96278.63;1029794;28;20061;-71
2022/07/06 01:32:56;;;;;;;1.85;1.60;;;;;;;15.16;100.00;96272.56;1033849;28;20547;-72
2022/07/06 01:33:27;;;;;;;2.88;1.80;;;;;;;15.14;100.00;96269.38;1029846;28;20081;-73
2022/07/06 01:33:58;;;;;;;2.65;1.95;;;;;;;15.14;100.00;96272.81;1025709;28;20035;-73
2022/07/06 01:34:29;;;;;;;2.58;1.70;;;;;;;15.13;100.00;96271.25;1021750;29;20042;-73
2022/07/06 01:34:59;;;;;;;4.13;1.60;;;;;;;15.11;100.00;96265.44;1021847;28;20051;-73
2022/07/06 01:35:30;;;;;;;2.65;1.40;;;;;;;15.12;100.00;96268.88;1021894;28;20035;-73
2022/07/06 01:36:01;;;;;;;3.47;1.73;;;;;;;15.12;100.00;96271.50;1026076;28;20030;-73
2022/07/06 01:36:31;;;;;;;2.83;1.80;;;;;;;15.10;100.00;96271.81;1025973;28;20031;-73
2022/07/06 01:37:02;;;;;;;4.00;1.77;;;;;;;15.08;100.00;96266.00;1025895;28;20023;-73
2022/07/06 01:37:32;;;;;;;3.35;2.10;;;;;;;15.06;100.00;96268.94;1029522;28;20026;-73
2022/07/06 01:38:03;;;;;;;3.83;1.70;;;;;;;15.07;100.00;96275.78;1030063;28;20541;-74
2022/07/06 01:38:46;;;;;;;3.00;1.98;;;;;;;14.99;100.00;96263.19;1029885;28;20030;-74
2022/07/06 01:39:16;;;;;;;2.35;1.80;;;;;;;14.99;100.00;96265.00;1023637;28;20027;-73
2022/07/06 01:39:47;;;;;;;3.40;1.88;;;;;;;15.00;100.00;96266.59;1021894;29;20199;-73
2022/07/06 01:40:17;;;;;;;4.38;1.83;;;;;;;14.93;100.00;96263.50;1023172;28;20019;-72
2022/07/06 01:40:48;;;;;;;3.58;2.00;;;;;;;14.97;100.00;96264.50;1026255;28;20031;-70
2022/07/06 01:41:18;;;;;;;2.00;1.80;;;;;;;14.91;100.00;96255.03;1029951;28;20545;-71
2022/07/06 01:41:49;;;;;;;3.50;2.22;;;;;;;14.94;100.00;96273.00;1025198;28;20587;-72
2022/07/06 01:42:19;;;;;;;1.80;1.70;;;;;;;14.83;100.00;96256.44;1029775;28;20170;-71
2022/07/06 01:42:50;;;;;;;5.30;2.15;;;;;;;14.92;100.00;96269.81;1029798;28;20097;-73
2022/07/06 01:43:20;;;;;;;2.85;1.85;;;;;;;14.86;100.00;96263.81;1026137;28;20758;-73
2022/07/06 01:43:50;;;;;;;6.28;1.80;;;;;;;14.86;100.00;96269.09;1022628;29;20055;-74
2022/07/06 01:44:21;;;;;;;4.28;1.90;;;;;;;14.87;100.00;96269.88;1026378;28;20027;-73
2022/07/06 01:44:51;;;;;;;4.10;1.98;;;;;;;14.87;100.00;96275.94;1026864;28;20073;-73
2022/07/06 01:45:22;;;;;;;3.38;1.80;;;;;;;14.85;100.00;96273.59;1026505;28;20022;-73
2022/07/06 01:45:52;;;;;;;3.75;1.60;;;;;;;14.86;100.00;96277.03;1028042;28;20018;-73
2022/07/06 01:46:23;;;;;;;4.05;1.95;;;;;;;14.85;100.00;96278.06;1022827;29;20027;-72
2022/07/06 01:46:53;;;;;;;1.65;1.50;;;;;;;14.84;100.00;96272.00;1026638;28;20030;-74
2022/07/06 01:47:24;;;;;;;2.03;1.77;;;;;;;14.84;100.00;96277.28;1027594;28;20706;-73
2022/07/06 01:47:54;;;;;;;2.78;1.90;;;;;;;14.83;100.00;96269.66;1030750;28;20097;-73
2022/07/06 01:48:25;;;;;;;4.97;2.20;;;;;;;14.84;100.00;96282.56;1034688;28;20022;-73
2022/07/06 01:48:55;;;;;;;1.80;1.70;;;;;;;14.81;100.00;96277.03;1030806;28;20109;-73
2022/07/06 01:49:26;;;;;;;3.33;1.77;;;;;;;14.84;100.00;96281.78;1026284;28;20766;-73
2022/07/06 01:50:00;;;;;;;4.63;1.98;;;;;;;14.84;100.00;96279.16;1022694;28;20127;-74
2022/07/06 01:50:31;;;;;;;3.63;1.60;;;;;;;14.83;100.00;96275.72;1022951;29;20144;-74
2022/07/06 01:51:01;;;;;;;4.53;1.92;;;;;;;14.82;100.00;96273.34;1019120;29;20032;-74
2022/07/06 01:51:32;;;;;;;3.25;1.95;;;;;;;14.84;100.00;96277.28;1019197;29;20031;-73
2022/07/06 01:52:03;;;;;;;2.67;1.67;;;;;;;14.82;100.00;96274.16;1022084;28;20015;-73
2022/07/06 01:52:33;;;;;;;3.58;1.80;;;;;;;14.79;100.00;96269.41;1027885;28;20026;-74
2022/07/06 01:53:03;;;;;;;1.77;1.67;;;;;;;14.82;100.00;96276.78;1027020;28;20022;-74
2022/07/06 01:53:34;;;;;;;2.38;1.92;;;;;;;14.83;100.00;96275.72;1026538;28;20522;-71
2022/07/06 01:54:04;;;;;;;2.78;2.13;;;;;;;14.81;100.00;96275.19;1022538;29;20038;-71
2022/07/06 01:54:35;;;;;;;4.22;1.92;;;;;;;14.78;100.00;96269.66;1018849;28;20024;-73
2022/07/06 01:55:06;;;;;;;2.38;1.75;;;;;;;14.80;100.00;96278.13;1026629;28;20113;-74
2022/07/06 01:55:36;;;;;;;1.60;1.50;;;;;;;14.79;100.00;96269.41;1030522;28;20054;-73
2022/07/06 01:56:07;;;;;;;4.45;2.40;;;;;;;14.79;100.00;96273.91;1026214;28;20466;-71
2022/07/06 01:56:37;;;;;;;2.15;1.98;;;;;;;14.82;100.00;96273.34;1026431;28;20671;-74
2022/07/06 01:57:08;;;;;;;5.10;2.25;;;;;;;14.78;100.00;96267.81;1026576;28;20062;-74
2022/07/06 01:57:38;;;;;;;2.90;2.00;;;;;;;14.83;100.00;96275.72;1026079;28;20517;-72
2022/07/06 01:58:09;;;;;;;3.30;2.00;;;;;;;14.81;100.00;96269.91;1025794;28;20040;-73
2022/07/06 01:58:39;;;;;;;3.75;1.70;;;;;;;14.81;100.00;96271.75;1026661;28;20037;-74
2022/07/06 01:59:10;;;;;;;3.97;2.08;;;;;;;14.82;100.00;96276.78;1026217;28;20086;-73
2022/07/06 01:59:40;;;;;;;2.90;1.90;;;;;;;14.80;100.00;96270.97;1021957;28;20043;-71
2022/07/06 02:00:11;;;;;;;3.08;1.65;;;;;;;14.82;100.00;96268.88;1026226;28;20610;-71
2022/07/06 02:00:42;;;;;;;5.70;2.20;;;;;;;14.84;100.00;96271.22;1026488;28;20042;-75
2022/07/06 02:01:14;;;;;;;3.75;2.25;;;;;;;14.81;100.00;96271.75;1028953;28;20038;-73
2022/07/06 02:01:44;;;;;;;2.70;1.80;;;;;;;14.80;100.00;96265.69;1028744;28;20815;-72
2022/07/06 02:02:15;;;;;;;3.72;1.90;;;;;;;14.81;100.00;96269.91;1030124;28;20062;-73
2022/07/06 02:02:45;;;;;;;3.22;1.80;;;;;;;14.81;100.00;96266.47;1022373;29;20090;-73
2022/07/06 02:03:16;;;;;;;2.45;1.65;;;;;;;14.81;100.00;96272.53;1026253;28;20660;-74
2022/07/06 02:03:46;;;;;;;3.28;2.00;;;;;;;14.80;100.00;96270.97;1026405;28;20573;-74
2022/07/06 02:04:17;;;;;;;3.65;1.90;;;;;;;14.82;100.00;96274.16;1026132;28;20027;-70
2022/07/06 02:04:47;;;;;;;5.28;2.13;;;;;;;14.82;100.00;96275.97;1030447;28;20058;-73
2022/07/06 02:05:18;;;;;;;6.32;1.92;;;;;;;14.79;100.00;96274.69;1030542;28;20429;-74
2022/07/06 02:05:49;;;;;;;2.67;1.75;;;;;;;14.82;100.00;96271.50;1026049;28;20023;-74
2022/07/06 02:06:19;;;;;;;7.57;2.08;;;;;;;14.82;100.00;96270.69;1028801;28;20462;-73
2022/07/06 02:06:50;;;;;;;2.70;1.85;;;;;;;14.82;100.00;96276.78;1022509;29;20042;-71
2022/07/06 02:07:20;;;;;;;2.75;2.03;;;;;;;14.80;100.00;96273.63;1026226;28;20038;-74
2022/07/06 02:07:50;;;;;;;3.03;2.03;;;;;;;14.81;100.00;96275.19;1029433;28;20552;-72
2022/07/06 02:08:21;;;;;;;1.80;1.70;;;;;;;14.79;100.00;96268.63;1030457;28;20031;-74
2022/07/06 02:08:52;;;;;;;2.17;1.80;;;;;;;14.77;100.00;96271.53;1026377;28;20085;-72
2022/07/06 02:09:23;;;;;;;3.28;1.90;;;;;;;14.77;100.00;96281.31;1030619;28;20533;-70
2022/07/06 02:09:53;;;;;;;3.33;2.10;;;;;;;14.75;100.00;96276.28;1026180;28;20035;-74
2022/07/06 02:10:24;;;;;;;4.22;2.40;;;;;;;14.74;100.00;96272.06;1022260;29;20046;-73
2022/07/06 02:10:54;;;;;;;2.72;1.83;;;;;;;14.72;100.00;96268.94;1022285;29;20130;-74
2022/07/06 02:11:25;;;;;;;2.20;1.98;;;;;;;14.73;100.00;96267.88;1028918;28;20433;-70
2022/07/06 02:11:55;;;;;;;5.78;1.85;;;;;;;14.73;100.00;96273.16;1029681;28;20828;-74
2022/07/06 02:12:26;;;;;;;2.97;1.98;;;;;;;14.73;100.00;96275.00;1030445;28;20533;-74
2022/07/06 02:12:56;;;;;;;3.50;2.03;;;;;;;14.70;100.00;96271.06;1024619;28;20176;-74
2022/07/06 02:13:27;;;;;;;5.00;2.10;;;;;;;14.69;100.00;96269.50;1026442;28;20027;-72
2022/07/06 02:13:57;;;;;;;3.13;2.15;;;;;;;14.64;100.00;96263.44;1026148;28;20755;-73
2022/07/06 02:14:28;;;;;;;2.17;1.90;;;;;;;14.69;100.00;96272.13;1022114;29;20043;-73
2022/07/06 02:14:58;;;;;;;2.65;2.10;;;;;;;14.69;100.00;96266.84;1026164;28;20038;-73
2022/07/06 02:15:28;;;;;;;5.93;2.15;;;;;;;14.68;100.00;96270.53;1026025;28;20038;-74
2022/07/06 02:15:59;;;;;;;2.30;2.10;;;;;;;14.67;100.00;96266.31;1034315;28;20017;-73
2022/07/06 02:16:29;;;;;;;4.03;1.90;;;;;;;14.65;100.00;96265.00;1029112;28;20034;-72
2022/07/06 02:17:00;;;;;;;3.92;2.15;;;;;;;14.67;100.00;96271.59;1025303;28;20038;-72
2022/07/06 02:17:30;;;;;;;3.60;2.22;;;;;;;14.68;100.00;96267.88;1026373;28;20062;-74
2022/07/06 02:18:01;;;;;;;4.35;2.08;;;;;;;14.65;100.00;96268.44;1026225;28;20050;-72
2022/07/06 02:18:31;;;;;;;2.85;1.88;;;;;;;14.61;100.00;96256.84;1030228;28;20014;-74
2022/07/06 02:19:02;;;;;;;5.35;1.92;;;;;;;14.68;100.00;96267.88;1030510;28;20014;-73
2022/07/06 02:19:32;;;;;;;2.95;1.73;;;;;;;14.65;100.00;96265.78;1022270;29;20545;-73
2022/07/06 02:20:04;;;;;;;1.90;1.60;;;;;;;14.64;100.00;96256.31;1026221;28;20422;-74
2022/07/06 02:20:35;;;;;;;4.05;2.13;;;;;;;14.66;100.00;96267.41;1034302;28;20029;-74
2022/07/06 02:21:05;;;;;;;2.78;1.90;;;;;;;14.65;100.00;96263.16;1034669;28;20010;-73
2022/07/06 02:21:35;;;;;;;2.58;2.15;;;;;;;14.67;100.00;96270.81;1038254;28;20033;-73
2022/07/06 02:22:06;;;;;;;5.85;2.67;;;;;;;14.55;100.00;96257.94;1033819;28;20481;-73
2022/07/06 02:22:36;;;;;;;5.38;2.15;;;;;;;14.67;100.00;96276.09;1034068;28;20096;-74
2022/07/06 02:23:07;;;;;;;2.13;1.83;;;;;;;14.65;100.00;96263.16;1034536;28;20052;-73
2022/07/06 02:23:37;;;;;;;6.45;2.28;;;;;;;14.67;100.00;96271.59;1034105;28;20724;-73
2022/07/06 02:24:08;;;;;;;2.95;1.77;;;;;;;14.66;100.00;96274.53;1030225;28;20084;-73